^^
Grace C. Lehan Memorial Weather Station Historical Data
Daily Summary for March 3, 2021 Units:  English    Metric   Both
Daily Weekly Monthly Yearly
  High: Low: Average:
Temperature: 74.6 °F 55 °F 65.4 °F
Dew Point: 65.1 °F 53 °F 59.5 °F
Humidity: 94% 62.3% 82%
Wind Speed: 0.4mph 0mph 0mph
Wind Gust: 5mph - -
Wind- - SW
Pressure: 29.99 in 29.88 in -
Precipitation: 0.04 in    
 
 
Tabular Data for March 3, 2021
Time Temperature Dew Point Pressure Wind Wind Speed Wind Gust Humidity Rainfall Rate (Hourly) solar
00:09 62 °F 56.2 °F 29.99 in Calm     81.2% 0.00 in 0 W/m2
00:14 61.8 °F 56.2 °F 29.99 in Calm     82% 0.00 in 0 W/m2
00:19 61.6 °F 56.1 °F 29.99 in Calm     82% 0.00 in 0 W/m2
00:24 61.4 °F 56.1 °F 29.99 in Calm     82.5% 0.00 in 0 W/m2
00:29 61.3 °F 56.1 °F 29.99 in Calm     83% 0.00 in 0 W/m2
00:34 61.1 °F 55.9 °F 29.99 in Calm     83% 0.00 in 0 W/m2
00:39 60.9 °F 55.7 °F 29.99 in Calm     83% 0.00 in 0 W/m2
00:44 60.8 °F 55.8 °F 29.99 in Calm     83.6% 0.00 in 0 W/m2
00:49 60.6 °F 55.8 °F 29.99 in Calm     84% 0.00 in 0 W/m2
00:54 60.5 °F 55.6 °F 29.99 in Calm     84% 0.00 in 0 W/m2
00:59 60.4 °F 55.6 °F 29.98 in Calm     84.3% 0.00 in 0 W/m2
01:04 60.2 °F 55.7 °F 29.98 in Calm     85% 0.00 in 0 W/m2
01:09 60.1 °F 55.6 °F 29.98 in Calm     85% 0.00 in 0 W/m2
01:14 60 °F 55.5 °F 29.98 in Calm     85% 0.00 in 0 W/m2
01:19 60 °F 55.7 °F 29.98 in Calm     85.7% 0.00 in 0 W/m2
01:24 60 °F 55.8 °F 29.98 in Calm     86% 0.00 in 0 W/m2
01:29 60.1 °F 55.8 °F 29.98 in Calm     85.8% 0.00 in 0 W/m2
01:34 60.1 °F 55.6 °F 29.98 in Calm     85% 0.00 in 0 W/m2
01:39 60.2 °F 55.9 °F 29.98 in Calm     85.7% 0.00 in 0 W/m2
01:44 60.2 °F 56 °F 29.98 in Calm   2 mph 86% 0.00 in 0 W/m2
01:49 60.4 °F 56.1 °F 29.98 in WNW 0.4 mph 5 mph 85.8% 0.00 in 0 W/m2
01:54 60.5 °F 55.9 °F 29.98 in Calm   5 mph 85% 0.00 in 0 W/m2
01:59 60.5 °F 55.8 °F 29.97 in Calm   5 mph 84.2% 0.00 in 0 W/m2
02:04 60.5 °F 55.7 °F 29.97 in Calm   5 mph 84% 0.00 in 0 W/m2
02:09 60.5 °F 55.6 °F 29.97 in Calm     84% 0.00 in 0 W/m2
02:14 60.4 °F 55.8 °F 29.98 in Calm     84.8% 0.00 in 0 W/m2
02:19 60.4 °F 55.9 °F 29.98 in Calm     85% 0.00 in 0 W/m2
02:24 60.4 °F 55.9 °F 29.98 in Calm     85% 0.00 in 0 W/m2
02:29 60.3 °F 55.6 °F 29.98 in Calm     84.3% 0.00 in 0 W/m2
02:34 60.2 °F 55.7 °F 29.98 in Calm   1 mph 85% 0.00 in 0 W/m2
02:39 60.1 °F 55.5 °F 29.98 in Calm   1 mph 85% 0.00 in 0 W/m2
02:44 60 °F 55.5 °F 29.98 in Calm   1 mph 85% 0.00 in 0 W/m2
02:49 60 °F 55.7 °F 29.97 in Calm   1 mph 85.6% 0.00 in 0 W/m2
02:54 60 °F 55.5 °F 29.97 in Calm   1 mph 85% 0.00 in 0 W/m2
02:59 60 °F 55.5 °F 29.97 in Calm   1 mph 85% 0.00 in 0 W/m2
03:04 59.9 °F 55.4 °F 29.97 in Calm   1 mph 85% 0.00 in 0 W/m2
03:09 59.8 °F 55.6 °F 29.97 in Calm     85.7% 0.00 in 0 W/m2
03:14 59.8 °F 55.6 °F 29.97 in Calm     86% 0.00 in 0 W/m2
03:19 59.6 °F 55.4 °F 29.96 in Calm     86% 0.00 in 0 W/m2
03:24 59.3 °F 55.2 °F 29.96 in Calm     86.1% 0.00 in 0 W/m2
03:29 59.2 °F 55.3 °F 29.96 in Calm     87% 0.00 in 0 W/m2
03:34 59 °F 55.4 °F 29.96 in Calm     87.7% 0.00 in 0 W/m2
03:39 58.9 °F 55 °F 29.96 in Calm     87% 0.00 in 0 W/m2
03:44 58.7 °F 55.1 °F 29.96 in Calm     87.7% 0.00 in 0 W/m2
03:49 58.7 °F 55.1 °F 29.96 in Calm     88% 0.00 in 0 W/m2
03:54 58.6 °F 55 °F 29.96 in Calm     88% 0.00 in 0 W/m2
03:59 58.5 °F 55 °F 29.96 in Calm     88% 0.00 in 0 W/m2
04:00 58.4 °F 54.9 °F 29.96 in Calm     88% 0.00 in 0 W/m2
04:09 58.3 °F 54.7 °F 29.96 in Calm     88% 0.00 in 0 W/m2
04:14 58.2 °F 54.7 °F 29.96 in Calm     88.3% 0.00 in 0 W/m2
04:19 58.1 °F 54.8 °F 29.95 in Calm     89% 0.00 in 0 W/m2
04:24 58 °F 54.8 °F 29.95 in Calm     89% 0.00 in 0 W/m2
04:29 57.9 °F 54.7 °F 29.95 in Calm     89% 0.00 in 0 W/m2
04:34 57.8 °F 54.6 °F 29.95 in Calm     89% 0.00 in 0 W/m2
04:39 57.7 °F 54.5 °F 29.95 in Calm     89% 0.00 in 0 W/m2
04:44 57.6 °F 54.4 °F 29.95 in Calm     89% 0.00 in 0 W/m2
04:49 57.5 °F 54.3 °F 29.95 in Calm     89% 0.00 in 0 W/m2
04:54 57.3 °F 54.4 °F 29.95 in Calm     89.8% 0.00 in 0 W/m2
04:59 57.3 °F 54.4 °F 29.95 in Calm     90% 0.00 in 0 W/m2
05:04 57.1 °F 54.2 °F 29.95 in Calm     90% 0.00 in 0 W/m2
05:09 57 °F 54.1 °F 29.95 in Calm     90% 0.00 in 0 W/m2
05:14 56.8 °F 53.9 °F 29.95 in Calm     90% 0.00 in 0 W/m2
05:19 56.7 °F 53.8 °F 29.95 in Calm     90% 0.00 in 0 W/m2
05:24 56.6 °F 53.7 °F 29.95 in Calm     90% 0.00 in 0 W/m2
05:29 56.5 °F 53.9 °F 29.95 in Calm     91% 0.00 in 0 W/m2
05:34 56.5 °F 53.9 °F 29.95 in Calm     91% 0.00 in 0 W/m2
05:39 56.4 °F 53.8 °F 29.95 in Calm     91% 0.00 in 0 W/m2
05:44 56.3 °F 53.7 °F 29.95 in Calm     91% 0.00 in 0 W/m2
05:49 56.2 °F 53.7 °F 29.95 in Calm     91% 0.00 in 0 W/m2
05:54 56.2 °F 53.6 °F 29.95 in Calm     91% 0.00 in 0 W/m2
05:59 56.1 °F 53.8 °F 29.95 in Calm     92% 0.00 in 0 W/m2
06:04 56.1 °F 53.8 °F 29.95 in Calm     92% 0.00 in 0 W/m2
06:09 56 °F 53.7 °F 29.95 in Calm     92% 0.00 in 0 W/m2
06:14 56 °F 53.7 °F 29.95 in Calm     92% 0.00 in 0 W/m2
06:19 55.9 °F 53.6 °F 29.94 in Calm     92% 0.00 in 0 W/m2
06:24 55.9 °F 53.6 °F 29.95 in Calm     92% 0.00 in 0 W/m2
06:29 55.7 °F 53.5 °F 29.95 in Calm     92% 0.00 in 0 W/m2
06:34 55.6 °F 53.4 °F 29.95 in Calm     92% 0.00 in 0 W/m2
06:39 55.5 °F 53.2 °F 29.95 in Calm     92% 0.00 in 0 W/m2
06:44 55.5 °F 53.3 °F 29.95 in Calm     92.4% 0.00 in 0 W/m2
06:49 55.5 °F 53.5 °F 29.95 in Calm     93% 0.00 in 0 W/m2
06:54 55.4 °F 53.4 °F 29.95 in Calm     93% 0.00 in 5 W/m2
06:59 55.3 °F 53.3 °F 29.96 in Calm     93% 0.00 in 9 W/m2
07:04 55.3 °F 53.3 °F 29.95 in Calm     93% 0.00 in 11 W/m2
07:09 55.3 °F 53.3 °F 29.95 in Calm     93% 0.00 in 11 W/m2
07:14 55.1 °F 53.2 °F 29.95 in Calm     93% 0.00 in 11 W/m2
07:19 55.1 °F 53.1 °F 29.96 in Calm     93% 0.00 in 14 W/m2
07:24 55 °F 53.1 °F 29.96 in Calm     93% 0.00 in 16 W/m2
07:29 55 °F 53 °F 29.96 in Calm     93% 0.00 in 18 W/m2
07:34 55.1 °F 53.1 °F 29.95 in Calm     93% 0.00 in 18 W/m2
07:39 55.2 °F 53.3 °F 29.95 in Calm     93.3% 0.00 in 23 W/m2
07:44 55.3 °F 53.6 °F 29.95 in Calm     94% 0.00 in 26 W/m2
07:49 55.4 °F 53.7 °F 29.95 in Calm     94% 0.00 in 26 W/m2
07:54 55.5 °F 53.9 °F 29.95 in Calm     94% 0.00 in 26 W/m2
07:59 55.7 °F 54 °F 29.95 in Calm     94% 0.00 in 32 W/m2
08:00 55.8 °F 54.2 °F 29.95 in Calm     94% 0.00 in 32 W/m2
08:09 56.3 °F 54.6 °F 29.95 in Calm     94% 0.00 in 35 W/m2
08:14 56.5 °F 54.8 °F 29.95 in Calm     94% 0.00 in 28 W/m2
08:19 56.8 °F 55.1 °F 29.95 in Calm     94% 0.00 in 30 W/m2
08:24 57.1 °F 55.4 °F 29.95 in Calm     94% 0.00 in 32 W/m2
08:29 57.4 °F 55.7 °F 29.95 in Calm     94% 0.00 in 33 W/m2
08:34 57.7 °F 56 °F 29.95 in Calm     94% 0.00 in 40 W/m2
08:39 58 °F 56.3 °F 29.95 in Calm     94% 0.00 in 81 W/m2
08:44 58.5 °F 56.7 °F 29.96 in Calm     94% 0.00 in 141 W/m2
08:49 59 °F 57.3 °F 29.95 in Calm     94% 0.00 in 186 W/m2
08:54 59.8 °F 57.7 °F 29.95 in Calm     92.7% 0.00 in 186 W/m2
08:59 60.6 °F 58 °F 29.96 in WNW 0.1 mph 2 mph 91.1% 0.00 in 179 W/m2
09:04 61.4 °F 58.3 °F 29.95 in Calm   2 mph 89.4% 0.00 in 118 W/m2
09:09 62.1 °F 58.4 °F 29.96 in Calm     87.8% 0.00 in 181 W/m2
09:14 62.7 °F 59 °F 29.96 in Calm     87.5% 0.00 in 229 W/m2
09:19 63.4 °F 59.1 °F 29.96 in Calm     85.9% 0.00 in 186 W/m2
09:24 63.9 °F 58.9 °F 29.96 in Calm     83.7% 0.00 in 255 W/m2
09:29 64.5 °F 59.5 °F 29.95 in Calm     83.8% 0.00 in 385 W/m2
09:34 65.3 °F 59.9 °F 29.95 in Calm     82.9% 0.00 in 236 W/m2
09:39 65.9 °F 60 °F 29.96 in Calm     81.4% 0.00 in 304 W/m2
09:44 66.4 °F 60.4 °F 29.96 in Calm     80.8% 0.00 in 594 W/m2
09:49 67 °F 60.6 °F 29.96 in Calm     79.9% 0.00 in 594 W/m2
09:54 67.7 °F 60.4 °F 29.95 in Calm     77.6% 0.00 in 570 W/m2
09:59 68.6 °F 60.7 °F 29.95 in Calm     76.1% 0.00 in 629 W/m2
10:04 69.8 °F 61.2 °F 29.96 in Calm     74.1% 0.00 in 629 W/m2
10:09 70.6 °F 60.7 °F 29.96 in Calm     70.8% 0.00 in 568 W/m2
10:14 71.2 °F 60.7 °F 29.95 in Calm     69.5% 0.00 in 599 W/m2
10:19 72 °F 61.2 °F 29.96 in Calm   1 mph 68.8% 0.00 in 610 W/m2
10:24 72.6 °F 61.6 °F 29.96 in Calm   1 mph 68.5% 0.00 in 325 W/m2
10:29 73 °F 61.1 °F 29.96 in Calm   1 mph 66.4% 0.00 in 628 W/m2
10:34 73.3 °F 61.2 °F 29.96 in Calm   1 mph 66% 0.00 in 406 W/m2
10:39 73.5 °F 61.2 °F 29.96 in Calm     65.3% 0.00 in 406 W/m2
10:44 73.6 °F 61.2 °F 29.95 in Calm     65.2% 0.00 in 652 W/m2
10:49 73.8 °F 61.7 °F 29.95 in Calm     65.9% 0.00 in 652 W/m2
10:54 73.9 °F 61.7 °F 29.95 in NNW 0.1 mph 2 mph 65.6% 0.00 in 689 W/m2
10:59 74 °F 60.8 °F 29.95 in North 0.1 mph 2 mph 63.4% 0.00 in 810 W/m2
11:04 74.2 °F 61.8 °F 29.95 in Calm   2 mph 65.2% 0.00 in 789 W/m2
11:09 74.5 °F 61.3 °F 29.95 in Calm     63.5% 0.00 in 281 W/m2
11:14 74.3 °F 60.6 °F 29.94 in Calm     62.3% 0.00 in 236 W/m2
11:19 74 °F 61 °F 29.94 in Calm     63.8% 0.00 in 195 W/m2
11:24 73.7 °F 61.1 °F 29.94 in Calm     64.7% 0.00 in 160 W/m2
11:29 73.3 °F 60.6 °F 29.94 in Calm     64.4% 0.00 in 176 W/m2
11:34 73.1 °F 60.7 °F 29.94 in Calm     65.3% 0.00 in 190 W/m2
11:39 72.8 °F 60.4 °F 29.94 in Calm     65.2% 0.00 in 183 W/m2
11:44 72.6 °F 60.2 °F 29.94 in Calm     65% 0.00 in 165 W/m2
11:49 72.5 °F 60.5 °F 29.94 in Calm     66.1% 0.00 in 139 W/m2
11:54 72.3 °F 60.1 °F 29.94 in Calm     65.5% 0.00 in 130 W/m2
11:59 72.2 °F 60.7 °F 29.94 in Calm     67.3% 0.00 in 120 W/m2
12:00 72.1 °F 61 °F 29.94 in Calm     68% 0.00 in 120 W/m2
12:09 71.8 °F 60.9 °F 29.93 in Calm     68.5% 0.00 in 162 W/m2
12:14 71.7 °F 60.7 °F 29.93 in Calm     68.2% 0.00 in 234 W/m2
12:19 71.6 °F 60.5 °F 29.93 in Calm     68% 0.00 in 250 W/m2
12:24 71.7 °F 60.5 °F 29.93 in Calm     67.7% 0.00 in 281 W/m2
12:29 71.9 °F 60.6 °F 29.93 in Calm     67.6% 0.00 in 283 W/m2
12:34 72.2 °F 61.5 °F 29.93 in Calm     69.2% 0.00 in 216 W/m2
12:39 72.4 °F 61.5 °F 29.93 in Calm     68.7% 0.00 in 162 W/m2
12:44 72.5 °F 61.9 °F 29.93 in Calm     69.4% 0.00 in 144 W/m2
12:49 72.5 °F 61.5 °F 29.93 in Calm     68.5% 0.00 in 134 W/m2
12:54 72.4 °F 61.5 °F 29.93 in Calm     68.7% 0.00 in 135 W/m2
12:59 72.4 °F 61.2 °F 29.92 in Calm     67.8% 0.00 in 155 W/m2
13:04 72.5 °F 61.8 °F 29.92 in Calm     69.3% 0.00 in 171 W/m2
13:09 72.6 °F 61.8 °F 29.92 in Calm     68.9% 0.00 in 171 W/m2
13:14 72.7 °F 61.6 °F 29.92 in Calm     68.3% 0.00 in 195 W/m2
13:19 72.8 °F 61.1 °F 29.92 in Calm     66.8% 0.00 in 211 W/m2
13:24 72.9 °F 61.7 °F 29.91 in Calm     67.9% 0.00 in 239 W/m2
13:29 73 °F 61.7 °F 29.91 in Calm     67.6% 0.00 in 241 W/m2
13:34 73.2 °F 61.6 °F 29.91 in Calm   1 mph 67.2% 0.00 in 237 W/m2
13:39 73.2 °F 61.2 °F 29.91 in Calm   1 mph 66% 0.00 in 237 W/m2
13:44 73.2 °F 61.1 °F 29.91 in Calm   1 mph 65.9% 0.00 in 151 W/m2
13:49 73.2 °F 60.9 °F 29.91 in Calm   1 mph 65.4% 0.00 in 148 W/m2
13:54 73.1 °F 61.1 °F 29.91 in Calm   1 mph 66% 0.00 in 190 W/m2
13:59 73.1 °F 60.7 °F 29.90 in Calm   1 mph 65% 0.00 in 197 W/m2
14:04 73.2 °F 61.1 °F 29.90 in Calm   1 mph 65.8% 0.00 in 211 W/m2
14:09 73.3 °F 61.9 °F 29.90 in Calm     67.3% 0.00 in 211 W/m2
14:14 73.5 °F 62.5 °F 29.90 in Calm     68.5% 0.00 in 178 W/m2
14:19 73.5 °F 62.3 °F 29.90 in Calm     68.1% 0.00 in 135 W/m2
14:24 73.5 °F 61.7 °F 29.89 in Calm     66.6% 0.00 in 135 W/m2
14:29 73.5 °F 62.2 °F 29.90 in Calm     67.7% 0.00 in 105 W/m2
14:34 73.6 °F 62.1 °F 29.90 in Calm     67.3% 0.00 in 158 W/m2
14:39 73.6 °F 62.4 °F 29.90 in Calm     68.1% 0.00 in 179 W/m2
14:44 73.5 °F 61.9 °F 29.89 in Calm     66.9% 0.00 in 200 W/m2
14:49 73.6 °F 62.5 °F 29.89 in Calm     68.2% 0.00 in 251 W/m2
14:54 73.8 °F 62.2 °F 29.89 in Calm     67.2% 0.00 in 239 W/m2
14:59 73.9 °F 61.7 °F 29.89 in Calm     65.6% 0.00 in 243 W/m2
15:04 74 °F 62.3 °F 29.89 in Calm     66.9% 0.00 in 220 W/m2
15:09 74 °F 62.3 °F 29.89 in Calm     66.7% 0.00 in 213 W/m2
15:14 74.1 °F 62.1 °F 29.89 in Calm     66.2% 0.00 in 199 W/m2
15:19 74.2 °F 62.6 °F 29.89 in Calm     67.1% 0.00 in 190 W/m2
15:24 74.4 °F 62.5 °F 29.88 in Calm     66.6% 0.00 in 167 W/m2
15:29 74.4 °F 61.9 °F 29.88 in Calm     65% 0.00 in 141 W/m2
15:34 74.4 °F 62.8 °F 29.88 in Calm     67.1% 0.00 in 121 W/m2
15:39 74.5 °F 63 °F 29.88 in Calm     67.3% 0.00 in 120 W/m2
15:44 74.6 °F 63 °F 29.88 in Calm     67.3% 0.00 in 105 W/m2
15:49 74.6 °F 63.1 °F 29.89 in Calm     67.5% 0.00 in 84 W/m2
15:54 74.6 °F 63.1 °F 29.89 in Calm     67.5% 0.00 in 67 W/m2
15:59 74.5 °F 63.5 °F 29.88 in Calm     68.6% 0.00 in 67 W/m2
16:04 74.2 °F 63.4 °F 29.88 in Calm     69% 0.00 in 40 W/m2
16:09 74.1 °F 63.5 °F 29.88 in Calm     69.6% 0.00 in 46 W/m2
16:14 73.9 °F 63.8 °F 29.88 in Calm     70.5% 0.00 in 47 W/m2
16:19 73.9 °F 63.9 °F 29.88 in Calm     71% 0.00 in 47 W/m2
16:24 73.7 °F 63.7 °F 29.88 in Calm     70.8% 0.00 in 56 W/m2
16:29 73.7 °F 64.2 °F 29.88 in Calm     72.3% 0.00 in 58 W/m2
16:34 73.5 °F 63.7 °F 29.88 in Calm     71.4% 0.00 in 47 W/m2
16:39 73.4 °F 63.6 °F 29.88 in Calm     71.4% 0.00 in 39 W/m2
16:44 73.3 °F 64.1 °F 29.88 in Calm     73% 0.00 in 32 W/m2
16:49 73.2 °F 64 °F 29.88 in Calm     72.8% 0.00 in 30 W/m2
16:54 73.1 °F 64.1 °F 29.88 in Calm     73.2% 0.00 in 32 W/m2
16:59 73.1 °F 64 °F 29.88 in Calm     73.3% 0.00 in 33 W/m2
17:04 73 °F 63.4 °F 29.89 in Calm     72.1% 0.00 in 40 W/m2
17:09 72.8 °F 63.8 °F 29.89 in Calm     73.3% 0.00 in 39 W/m2
17:14 72.8 °F 64.4 °F 29.89 in Calm     75% 0.00 in 25 W/m2
17:19 72.6 °F 64.2 °F 29.89 in Calm     74.7% 0.00 in 19 W/m2
17:24 72.5 °F 64.6 °F 29.89 in Calm     76.2% 0.00 in 19 W/m2
17:29 72.5 °F 65.1 °F 29.89 in Calm     77.5% 0.00 in 14 W/m2
17:34 72.2 °F 64.9 °F 29.89 in North 0.1 mph 2 mph 77.8% 0.00 in 9 W/m2
17:39 71.9 °F 64.8 °F 29.89 in Calm   2 mph 78.3% 0.00 in 0 W/m2
17:44 71.6 °F 64.8 °F 29.89 in Calm   2 mph 79% 0.00 in 0 W/m2
17:49 71.3 °F 64.8 °F 29.89 in Calm   2 mph 80.1% 0.00 in 0 W/m2
17:54 70.9 °F 64.6 °F 29.89 in Calm   2 mph 80.5% 0.00 in 0 W/m2
17:59 70.5 °F 64.4 °F 29.89 in Calm   2 mph 81% 0.00 in 0 W/m2
18:04 70.1 °F 63.9 °F 29.89 in Calm   2 mph 80.6% 0.00 in 0 W/m2
18:09 69.9 °F 64 °F 29.89 in Calm     81.7% 0.00 in 0 W/m2
18:14 69.7 °F 64 °F 29.90 in Calm     82% 0.00 in 0 W/m2
18:19 69.5 °F 63.6 °F 29.90 in Calm     81.6% 0.00 in 0 W/m2
18:24 69.2 °F 63.2 °F 29.90 in Calm     81.2% 0.00 in 0 W/m2
18:29 69.2 °F 63.7 °F 29.90 in Calm     82.7% 0.00 in 0 W/m2
18:34 69.1 °F 64 °F 29.90 in Calm     84% 0.00 in 0 W/m2
18:39 68.8 °F 63.8 °F 29.90 in Calm     84% 0.00 in 0 W/m2
18:44 68.7 °F 64 °F 29.90 in Calm     85% 0.00 in 0 W/m2
18:49 68.6 °F 64.2 °F 29.90 in Calm     86% 0.01 in 0 W/m2
18:54 68.4 °F 64.1 °F 29.90 in Calm     86% 0.01 in 0 W/m2
18:59 68.2 °F 64.2 °F 29.90 in Calm     87% 0.01 in 0 W/m2
19:04 68 °F 64.1 °F 29.90 in Calm     87.2% 0.01 in 0 W/m2
19:09 67.9 °F 64.2 °F 29.90 in Calm     87.8% 0.01 in 0 W/m2
19:14 67.8 °F 64.2 °F 29.90 in North 0.1 mph 2 mph 88.1% 0.01 in 0 W/m2
19:19 67.7 °F 64.2 °F 29.90 in Calm   2 mph 88.6% 0.01 in 0 W/m2
19:24 67.5 °F 64.1 °F 29.90 in Calm   2 mph 89% 0.01 in 0 W/m2
19:29 67.3 °F 64 °F 29.90 in Calm   2 mph 89% 0.01 in 0 W/m2
19:34 67.3 °F 64.1 °F 29.91 in North 0.3 mph 4 mph 89.7% 0.01 in 0 W/m2
19:39 67.2 °F 64.2 °F 29.91 in NNW 0.1 mph 5 mph 90% 0.01 in 0 W/m2
19:44 67.1 °F 63.9 °F 29.91 in NNW 0.2 mph 5 mph 89.3% 0.01 in 0 W/m2
19:49 67 °F 63.9 °F 29.92 in Calm   5 mph 89.7% 0.01 in 0 W/m2
19:54 66.8 °F 63.5 °F 29.92 in Calm   5 mph 89% 0.01 in 0 W/m2
19:59 66.7 °F 63.3 °F 29.92 in Calm   5 mph 89% 0.01 in 0 W/m2
20:09 66.3 °F 63 °F 29.91 in Calm     89% 0.01 in 0 W/m2
20:14 66.2 °F 62.9 °F 29.91 in Calm     89% 0.01 in 0 W/m2
20:19 66.1 °F 63.1 °F 29.91 in Calm     89.9% 0.01 in 0 W/m2
20:24 66.1 °F 63.1 °F 29.91 in Calm     90% 0.01 in 0 W/m2
20:29 66.1 °F 63.1 °F 29.91 in NE 0.3 mph 4 mph 90% 0.01 in 0 W/m2
20:34 66 °F 63 °F 29.91 in Calm   4 mph 90% 0.01 in 0 W/m2
20:39 65.9 °F 62.8 °F 29.91 in NE 0.1 mph 4 mph 90% 0.00 in 0 W/m2
20:44 65.7 °F 63 °F 29.91 in NE 0.1 mph 4 mph 90.7% 0.00 in 0 W/m2
20:49 65.6 °F 62.9 °F 29.91 in Calm   4 mph 91% 0.00 in 0 W/m2
20:54 65.5 °F 62.8 °F 29.91 in Calm   4 mph 91.2% 0.00 in 0 W/m2
20:59 65.4 °F 62.7 °F 29.91 in Calm   4 mph 91% 0.00 in 0 W/m2
21:04 65.3 °F 62.6 °F 29.91 in Calm   4 mph 91% 0.00 in 0 W/m2
21:09 65.2 °F 62.6 °F 29.91 in Calm     91% 0.00 in 0 W/m2
21:14 65.2 °F 62.5 °F 29.92 in Calm     91% 0.00 in 0 W/m2
21:19 65.2 °F 62.5 °F 29.92 in Calm     91% 0.00 in 0 W/m2
21:24 65.1 °F 62.4 °F 29.92 in Calm     91% 0.00 in 0 W/m2
21:29 65.1 °F 62.4 °F 29.92 in Calm     91% 0.00 in 0 W/m2
21:34 65 °F 62.3 °F 29.92 in Calm     91% 0.00 in 0 W/m2
21:39 65 °F 62.3 °F 29.92 in Calm     91% 0.00 in 0 W/m2
21:44 65 °F 62.4 °F 29.92 in Calm     91.2% 0.00 in 0 W/m2
21:49 64.9 °F 62.5 °F 29.92 in Calm     92% 0.00 in 0 W/m2
21:54 64.9 °F 62.3 °F 29.92 in Calm   1 mph 91.3% 0.00 in 0 W/m2
21:59 64.8 °F 62.4 °F 29.92 in Calm   1 mph 91.9% 0.00 in 0 W/m2
22:04 64.8 °F 62.4 °F 29.92 in Calm   1 mph 92% 0.00 in 0 W/m2
22:09 64.8 °F 62.4 °F 29.92 in NE 0.2 mph 3 mph 92% 0.00 in 0 W/m2
22:14 64.7 °F 62.4 °F 29.92 in Calm   3 mph 92% 0.00 in 0 W/m2
22:19 64.7 °F 62.3 °F 29.92 in Calm   3 mph 92% 0.00 in 0 W/m2
22:24 64.6 °F 62.2 °F 29.92 in NW 0.4 mph 5 mph 92% 0.00 in 0 W/m2
22:29 64.4 °F 62.1 °F 29.92 in NNW 0.1 mph 5 mph 92% 0.00 in 0 W/m2
22:34 64.3 °F 61.9 °F 29.92 in NNW 0.1 mph 5 mph 92% 0.00 in 0 W/m2
22:39 64.2 °F 61.8 °F 29.92 in Calm   2 mph 92% 0.00 in 0 W/m2
22:44 64 °F 61.7 °F 29.92 in NNW 0.1 mph 2 mph 92% 0.00 in 0 W/m2
22:49 63.9 °F 61.6 °F 29.92 in NNW 0.1 mph 4 mph 92% 0.00 in 0 W/m2
22:54 63.8 °F 61.5 °F 29.92 in NW 0.1 mph 4 mph 92% 0.00 in 0 W/m2
22:59 63.7 °F 61.4 °F 29.92 in Calm   4 mph 92% 0.00 in 0 W/m2
23:04 63.6 °F 61.3 °F 29.92 in Calm   4 mph 92% 0.00 in 0 W/m2
23:09 63.6 °F 61.2 °F 29.93 in Calm   1 mph 92% 0.00 in 0 W/m2
23:14 63.5 °F 61.1 °F 29.92 in Calm   1 mph 92% 0.00 in 0 W/m2
23:19 63.4 °F 61.1 °F 29.93 in Calm   1 mph 92% 0.00 in 0 W/m2
23:24 63.4 °F 61.2 °F 29.93 in Calm   1 mph 92.6% 0.00 in 0 W/m2
23:29 63.4 °F 61.3 °F 29.92 in Calm   1 mph 93% 0.00 in 0 W/m2
23:34 63.4 °F 61.3 °F 29.92 in Calm   1 mph 93% 0.00 in 0 W/m2
23:39 63.4 °F 61.3 °F 29.93 in Calm     93% 0.00 in 0 W/m2
23:44 63.3 °F 61.3 °F 29.93 in Calm     93% 0.00 in 0 W/m2
23:49 63.3 °F 61.3 °F 29.93 in Calm     93% 0.03 in 0 W/m2
23:54 63.3 °F 61.3 °F 29.92 in Calm   1 mph 93% 0.03 in 0 W/m2
23:59 63.3 °F 61.2 °F 29.92 in Calm   1 mph 93% 0.03 in 0 W/m2
Hartford County Weather
Compliments of Weather Underground - 4 mb